Time;durP1;ratioP1;P1;durP2;ratioP2;P2;SDS_P1;SDS_P2;PMS_P1;PMS_P2;Temp;Humidity;BMP_temperature;BMP_pressure;BME280_temperature;BME280_humidity;BME280_pressure;Samples;Min_cycle;Max_cycle;Signal;HPM_P1;HPM_P2
2021/06/07 00:01:46;;;;;;;10.73;7.55;;;10.60;99.90;;;;;;4160055;28;20598;-72
2021/06/07 00:03:49;;;;;;;12.10;7.53;;;10.50;99.90;;;;;;4156228;28;20503;-72
2021/06/07 00:05:51;;;;;;;8.95;7.25;;;10.40;99.90;;;;;;4154620;28;20022;-73
2021/06/07 00:07:51;;;;;;;8.18;7.25;;;10.40;99.90;;;;;;4156595;28;20440;-73
2021/06/07 00:09:52;;;;;;;7.78;6.78;;;10.30;99.90;;;;;;4157301;28;20037;-74
2021/06/07 00:11:56;;;;;;;10.65;7.32;;;10.30;99.90;;;;;;4162489;28;20349;-72
2021/06/07 00:13:57;;;;;;;10.30;7.55;;;10.30;99.90;;;;;;4162285;28;20405;-73
2021/06/07 00:15:58;;;;;;;14.18;7.18;;;10.40;99.90;;;;;;4161389;28;20141;-73
2021/06/07 00:18:00;;;;;;;13.00;8.35;;;10.40;99.90;;;;;;4162262;28;20030;-73
2021/06/07 00:20:01;;;;;;;10.05;8.07;;;10.40;99.90;;;;;;4162019;28;20061;-73
2021/06/07 00:22:03;;;;;;;9.75;8.80;;;10.40;99.90;;;;;;4162504;28;20029;-72
2021/06/07 00:24:05;;;;;;;10.13;7.88;;;10.40;99.90;;;;;;4162578;28;20133;-72
2021/06/07 00:26:06;;;;;;;10.37;8.90;;;10.30;99.90;;;;;;4162041;28;20385;-72
2021/06/07 00:28:07;;;;;;;11.45;7.95;;;10.30;99.90;;;;;;4162653;28;20109;-73
2021/06/07 00:30:11;;;;;;;11.00;8.27;;;10.30;99.90;;;;;;4163364;28;20490;-72
2021/06/07 00:32:11;;;;;;;8.88;7.30;;;10.30;99.90;;;;;;4165004;28;20484;-72
2021/06/07 00:34:13;;;;;;;12.68;8.70;;;10.30;99.90;;;;;;4165411;28;20033;-72
2021/06/07 00:36:19;;;;;;;10.23;8.18;;;10.40;99.90;;;;;;4165240;28;20567;-72
2021/06/07 00:38:20;;;;;;;11.43;8.20;;;10.40;99.90;;;;;;4165429;28;20085;-73
2021/06/07 00:40:24;;;;;;;10.70;8.18;;;10.40;99.90;;;;;;4165050;28;20101;-72
2021/06/07 00:42:24;;;;;;;10.38;7.82;;;10.50;99.90;;;;;;4164186;28;20044;-72
2021/06/07 00:44:25;;;;;;;8.88;7.97;;;10.50;99.90;;;;;;4165177;28;20108;-73
2021/06/07 00:46:26;;;;;;;9.98;7.88;;;10.40;99.90;;;;;;4165369;28;20041;-72
2021/06/07 00:48:27;;;;;;;12.75;8.80;;;10.30;99.90;;;;;;4165350;28;20469;-72
2021/06/07 00:50:53;;;;;;;10.52;8.23;;;10.30;99.90;;;;;;4164947;28;20038;-72
2021/06/07 00:53:04;;;;;;;9.70;7.90;;;10.30;99.90;;;;;;4159934;28;20117;-72
2021/06/07 00:55:05;;;;;;;9.45;7.88;;;10.20;99.90;;;;;;4164570;28;21112;-72
2021/06/07 00:57:06;;;;;;;8.93;7.78;;;10.20;99.90;;;;;;4165178;28;20145;-73
2021/06/07 00:59:07;;;;;;;10.82;9.45;;;10.20;99.90;;;;;;4162980;28;20048;-73
2021/06/07 01:01:11;;;;;;;10.57;9.20;;;10.20;99.90;;;;;;4165101;28;20032;-72
2021/06/07 01:03:14;;;;;;;13.70;9.32;;;10.10;99.90;;;;;;4165116;28;20055;-73
2021/06/07 01:05:14;;;;;;;10.32;8.88;;;10.10;99.90;;;;;;4164403;28;20632;-72
2021/06/07 01:07:15;;;;;;;15.85;9.50;;;10.10;99.90;;;;;;4164734;28;20030;-72
2021/06/07 01:09:15;;;;;;;10.50;9.38;;;10.00;99.90;;;;;;4164561;28;20045;-73
2021/06/07 01:11:17;;;;;;;11.52;9.50;;;10.00;99.90;;;;;;4164952;28;20036;-72
2021/06/07 01:13:19;;;;;;;10.90;9.70;;;10.00;99.90;;;;;;4164766;28;20374;-73
2021/06/07 01:15:20;;;;;;;12.50;9.38;;;9.90;99.90;;;;;;4164521;28;20044;-73
2021/06/07 01:17:20;;;;;;;11.88;10.13;;;9.90;99.90;;;;;;4164775;28;20060;-73
2021/06/07 01:19:22;;;;;;;14.57;9.85;;;9.90;99.90;;;;;;4164408;28;20389;-74
2021/06/07 01:21:25;;;;;;;12.15;9.43;;;9.90;99.90;;;;;;4164357;28;20034;-73
2021/06/07 01:23:27;;;;;;;11.23;10.10;;;9.90;99.90;;;;;;4165016;28;20034;-73
2021/06/07 01:25:32;;;;;;;24.58;11.38;;;9.90;99.90;;;;;;4164490;28;20025;-73
2021/06/07 01:27:33;;;;;;;13.98;10.43;;;9.90;99.90;;;;;;4163349;28;20049;-74
2021/06/07 01:29:34;;;;;;;15.75;10.25;;;9.80;99.90;;;;;;4164558;28;20365;-74
2021/06/07 01:31:34;;;;;;;11.98;9.93;;;9.80;99.90;;;;;;4164462;28;20037;-74
2021/06/07 01:33:36;;;;;;;13.18;10.13;;;9.70;99.90;;;;;;4164632;28;20029;-73
2021/06/07 01:35:38;;;;;;;13.38;11.40;;;9.70;99.90;;;;;;4164350;28;20033;-74
2021/06/07 01:37:40;;;;;;;17.73;10.20;;;9.70;99.90;;;;;;4163306;28;20035;-73
2021/06/07 01:39:40;;;;;;;19.73;11.13;;;9.60;99.90;;;;;;4163976;28;20476;-73
2021/06/07 01:41:41;;;;;;;12.43;10.88;;;9.60;99.90;;;;;;4163047;28;20030;-74
2021/06/07 01:43:42;;;;;;;17.30;10.93;;;9.50;99.90;;;;;;4164373;28;20468;-74
2021/06/07 01:45:46;;;;;;;13.32;11.68;;;9.50;99.90;;;;;;4189233;28;20043;-73
2021/06/07 01:47:47;;;;;;;16.73;10.77;;;9.50;99.90;;;;;;4164504;28;20505;-73
2021/06/07 01:49:48;;;;;;;17.48;11.52;;;9.50;99.90;;;;;;4163660;28;20041;-73
2021/06/07 01:51:49;;;;;;;15.63;11.48;;;9.50;99.90;;;;;;4162541;28;20033;-73
2021/06/07 01:53:49;;;;;;;18.65;12.00;;;9.60;99.90;;;;;;4163553;28;20034;-73
2021/06/07 01:55:53;;;;;;;14.15;11.10;;;9.60;99.90;;;;;;4164222;28;20033;-73
2021/06/07 01:57:55;;;;;;;15.73;13.23;;;9.50;99.90;;;;;;4164176;28;20469;-74
2021/06/07 01:59:55;;;;;;;15.40;12.70;;;9.50;99.90;;;;;;4163969;28;20476;-74
2021/06/07 02:01:56;;;;;;;16.75;12.70;;;9.50;99.90;;;;;;4164028;28;20022;-73
2021/06/07 02:03:57;;;;;;;18.60;12.27;;;9.50;99.90;;;;;;4164174;28;20496;-74
2021/06/07 02:06:00;;;;;;;15.75;13.25;;;9.50;99.90;;;;;;4164113;28;20025;-73
2021/06/07 02:08:05;;;;;;;18.63;14.00;;;9.50;99.90;;;;;;4163741;28;20477;-73
2021/06/07 02:10:06;;;;;;;20.27;14.35;;;9.60;99.90;;;;;;4164011;28;20069;-73
2021/06/07 02:12:07;;;;;;;14.73;13.00;;;9.60;99.90;;;;;;4163773;28;20022;-73
2021/06/07 02:14:09;;;;;;;14.55;12.48;;;9.60;99.90;;;;;;4163631;28;20037;-73
2021/06/07 02:16:16;;;;;;;17.85;12.52;;;9.60;99.90;;;;;;4163905;28;20025;-73
2021/06/07 02:18:17;;;;;;;14.93;12.68;;;9.60;99.90;;;;;;4163361;28;20384;-73
2021/06/07 02:20:21;;;;;;;16.10;13.00;;;9.60;99.90;;;;;;4163420;28;20025;-73
2021/06/07 02:22:22;;;;;;;16.15;12.82;;;9.50;99.90;;;;;;4163707;28;20045;-73
2021/06/07 02:24:22;;;;;;;16.73;12.82;;;9.50;99.90;;;;;;4163526;28;20052;-75
2021/06/07 02:26:24;;;;;;;16.45;13.18;;;9.50;99.90;;;;;;4163967;28;20129;-74
2021/06/07 02:28:26;;;;;;;19.10;12.68;;;9.50;99.90;;;;;;4163557;28;20091;-71
2021/06/07 02:30:29;;;;;;;17.38;12.27;;;9.50;99.90;;;;;;4163513;28;20370;-73
2021/06/07 02:32:29;;;;;;;17.65;12.48;;;9.50;99.90;;;;;;4163661;28;20032;-73
2021/06/07 02:34:30;;;;;;;17.60;14.05;;;9.40;99.90;;;;;;4163578;28;20034;-73
2021/06/07 02:36:33;;;;;;;16.77;13.05;;;9.30;99.90;;;;;;4161867;28;20030;-73
2021/06/07 02:38:34;;;;;;;16.35;13.02;;;9.30;99.90;;;;;;4163702;28;20043;-72
2021/06/07 02:40:34;;;;;;;14.70;13.07;;;9.20;99.90;;;;;;4163232;28;20120;-72
2021/06/07 02:42:37;;;;;;;21.40;13.82;;;9.30;99.90;;;;;;4163712;28;20033;-72
2021/06/07 02:44:39;;;;;;;17.30;14.82;;;9.30;99.90;;;;;;4163413;28;20099;-72
2021/06/07 02:46:39;;;;;;;17.35;15.02;;;9.20;99.90;;;;;;4162824;28;20092;-72
2021/06/07 02:48:40;;;;;;;18.90;15.85;;;9.20;99.90;;;;;;4163522;28;20041;-72
2021/06/07 02:50:43;;;;;;;16.08;14.25;;;9.20;99.90;;;;;;4163156;28;20499;-72
2021/06/07 02:52:47;;;;;;;;;;;9.20;99.90;;;;;;4163293;28;20053;-73
2021/06/07 02:54:48;;;;;;;;;;;9.20;99.90;;;;;;4163414;28;20420;-73
2021/06/07 02:56:48;;;;;;;20.48;13.63;;;9.20;99.90;;;;;;4163322;28;19913;-72
2021/06/07 02:58:49;;;;;;;19.98;14.65;;;9.20;99.90;;;;;;4163027;28;20377;-72
2021/06/07 03:00:53;;;;;;;20.73;15.10;;;9.10;99.90;;;;;;4162790;28;20047;-72
2021/06/07 03:02:55;;;;;;;20.25;14.85;;;9.00;99.90;;;;;;4163313;28;20124;-73
2021/06/07 03:04:56;;;;;;;21.90;15.57;;;9.00;99.90;;;;;;4163155;28;20026;-72
2021/06/07 03:06:57;;;;;;;16.02;14.23;;;9.00;99.90;;;;;;4163200;28;20037;-72
2021/06/07 03:08:57;;;;;;;21.90;16.42;;;9.00;99.90;;;;;;4161621;28;20033;-73
2021/06/07 03:11:01;;;;;;;20.05;15.35;;;9.00;99.90;;;;;;4163205;28;20028;-73
2021/06/07 03:13:02;;;;;;;21.17;15.10;;;9.00;99.90;;;;;;4162984;28;20470;-72
2021/06/07 03:15:08;;;;;;;21.67;15.10;;;8.90;99.90;;;;;;4162607;28;20038;-73
2021/06/07 03:17:09;;;;;;;16.38;14.68;;;8.90;99.90;;;;;;4163495;28;20038;-73
2021/06/07 03:19:10;;;;;;;20.05;15.18;;;8.90;99.90;;;;;;4162580;28;20026;-73
2021/06/07 03:21:10;;;;;;;22.02;14.95;;;8.90;99.90;;;;;;4149232;28;20032;-72
2021/06/07 03:23:14;;;;;;;26.15;16.05;;;8.90;99.90;;;;;;4161712;28;20036;-72
2021/06/07 03:25:14;;;;;;;;;;;8.90;99.90;;;;;;4163579;28;20025;-73
2021/06/07 03:27:16;;;;;;;21.30;15.35;;;9.00;99.90;;;;;;4161639;28;20040;-72
2021/06/07 03:29:16;;;;;;;22.35;15.48;;;9.00;99.90;;;;;;4162833;28;20040;-72
2021/06/07 03:31:17;;;;;;;20.83;15.35;;;9.00;99.90;;;;;;4162745;28;20053;-72
2021/06/07 03:33:20;;;;;;;20.92;15.52;;;9.10;99.90;;;;;;4163161;28;20029;-72
2021/06/07 03:35:22;;;;;;;23.50;15.23;;;9.20;99.90;;;;;;4162920;28;22230;-72
2021/06/07 03:37:22;;;;;;;18.48;14.85;;;9.20;99.90;;;;;;4161417;28;20503;-72
2021/06/07 03:39:23;;;;;;;20.10;15.73;;;9.20;99.90;;;;;;4163238;28;20041;-72
2021/06/07 03:41:24;;;;;;;21.42;15.00;;;9.20;99.90;;;;;;4161441;28;20478;-72
2021/06/07 03:43:28;;;;;;;21.88;15.95;;;9.20;99.90;;;;;;4162782;28;20057;-72
2021/06/07 03:45:29;;;;;;;20.23;15.02;;;9.10;99.90;;;;;;4161310;28;20063;-72
2021/06/07 03:47:30;;;;;;;18.48;16.20;;;9.10;99.90;;;;;;4163020;28;20506;-73
2021/06/07 03:49:30;;;;;;;16.75;14.18;;;9.10;99.90;;;;;;4163046;28;20033;-73
2021/06/07 03:51:31;;;;;;;18.00;15.27;;;9.10;99.90;;;;;;4160615;28;20133;-72
2021/06/07 03:53:32;;;;;;;21.98;14.90;;;9.10;99.90;;;;;;4161313;28;20069;-72
2021/06/07 03:55:33;;;;;;;19.50;14.60;;;9.10;99.90;;;;;;4161395;28;20101;-72
2021/06/07 03:57:35;;;;;;;19.45;15.68;;;9.10;99.90;;;;;;4146928;28;20034;-72
2021/06/07 03:59:35;;;;;;;18.10;14.35;;;9.10;99.90;;;;;;4152256;28;20034;-72
2021/06/07 04:01:36;;;;;;;17.70;14.45;;;9.20;99.90;;;;;;4161799;28;20040;-72
2021/06/07 04:03:38;;;;;;;17.02;14.27;;;9.20;99.90;;;;;;4160853;28;20061;-73
2021/06/07 04:05:40;;;;;;;20.40;14.93;;;9.20;99.90;;;;;;4152279;28;20037;-73
2021/06/07 04:07:43;;;;;;;18.58;15.05;;;9.20;99.90;;;;;;4150415;28;20029;-73
2021/06/07 04:09:43;;;;;;;19.83;15.13;;;9.20;99.90;;;;;;4150114;28;20117;-73
2021/06/07 04:11:44;;;;;;;22.38;15.13;;;9.20;99.90;;;;;;4150062;28;20069;-73
2021/06/07 04:13:45;;;;;;;19.48;15.13;;;9.20;99.90;;;;;;4149638;28;20044;-73
2021/06/07 04:15:45;;;;;;;21.55;16.05;;;9.30;99.90;;;;;;4176131;28;20106;-73
2021/06/07 04:17:47;;;;;;;20.40;15.85;;;9.30;99.90;;;;;;4164027;28;20447;-73
2021/06/07 04:19:47;;;;;;;18.35;15.82;;;9.30;99.90;;;;;;4161216;28;20381;-73
2021/06/07 04:21:48;;;;;;;22.85;16.83;;;9.30;99.90;;;;;;4157472;28;20044;-73
2021/06/07 04:23:49;;;;;;;19.08;15.63;;;9.40;99.90;;;;;;4165397;28;20529;-72
2021/06/07 04:25:50;;;;;;;18.30;15.50;;;9.40;99.90;;;;;;4169173;28;20049;-72
2021/06/07 04:27:52;;;;;;;21.45;15.93;;;9.50;99.90;;;;;;4152106;28;20468;-72
2021/06/07 04:29:53;;;;;;;20.67;15.63;;;9.60;99.90;;;;;;4150505;28;20101;-72
2021/06/07 04:31:54;;;;;;;19.13;15.43;;;9.60;99.90;;;;;;4150712;28;20080;-72
2021/06/07 04:33:55;;;;;;;22.52;14.93;;;9.70;99.90;;;;;;4150630;28;20413;-72
2021/06/07 04:35:56;;;;;;;19.95;15.15;;;9.70;99.90;;;;;;4150654;28;20117;-72
2021/06/07 04:37:57;;;;;;;17.40;13.80;;;9.80;99.90;;;;;;4163776;28;20040;-72
2021/06/07 04:39:58;;;;;;;16.58;13.27;;;9.90;99.90;;;;;;4163233;28;20029;-73
2021/06/07 04:41:59;;;;;;;15.05;12.52;;;10.00;99.90;;;;;;4155014;28;20061;-73
2021/06/07 04:44:00;;;;;;;18.08;13.73;;;10.10;99.90;;;;;;4165027;28;20029;-73
2021/06/07 04:46:01;;;;;;;16.00;13.10;;;10.20;99.90;;;;;;4164006;28;20128;-73
2021/06/07 04:48:03;;;;;;;17.98;13.52;;;10.30;99.90;;;;;;4152687;28;20075;-73
2021/06/07 04:50:06;;;;;;;14.05;12.63;;;10.30;99.90;;;;;;4162903;28;20472;-74
2021/06/07 04:52:07;;;;;;;18.77;13.48;;;10.40;99.90;;;;;;4164656;28;20029;-73
2021/06/07 04:54:08;;;;;;;16.10;12.27;;;10.50;99.90;;;;;;4165032;28;20056;-73
2021/06/07 04:56:08;;;;;;;12.70;11.40;;;10.60;99.90;;;;;;4165189;28;20029;-74
2021/06/07 04:58:18;;;;;;;14.15;11.02;;;10.70;99.90;;;;;;4164828;28;20116;-73
2021/06/07 05:00:21;;;;;;;16.35;10.85;;;10.80;99.90;;;;;;4165074;28;20044;-73
2021/06/07 05:02:22;;;;;;;13.95;10.05;;;10.90;99.90;;;;;;4163175;28;20030;-74
2021/06/07 05:04:22;;;;;;;12.52;10.02;;;11.00;99.90;;;;;;4164943;28;20479;-74
2021/06/07 05:06:23;;;;;;;13.27;9.80;;;11.20;99.90;;;;;;4164771;28;20025;-74
2021/06/07 05:08:28;;;;;;;11.25;9.70;;;11.20;99.90;;;;;;4164650;28;20025;-73
2021/06/07 05:10:28;;;;;;;14.68;9.65;;;11.30;99.90;;;;;;4163439;28;20025;-73
2021/06/07 05:12:29;;;;;;;14.15;10.50;;;11.30;99.90;;;;;;4164999;28;20029;-73
2021/06/07 05:14:30;;;;;;;15.73;10.40;;;11.30;99.90;;;;;;4165415;28;20072;-74
2021/06/07 05:16:30;;;;;;;12.48;9.85;;;11.40;99.90;;;;;;4163533;28;20433;-73
2021/06/07 05:18:33;;;;;;;14.02;9.95;;;11.50;99.90;;;;;;4165528;28;20112;-72
2021/06/07 05:20:35;;;;;;;12.02;9.43;;;11.60;99.90;;;;;;4165114;28;20060;-72
2021/06/07 05:22:36;;;;;;;12.95;9.63;;;11.70;99.90;;;;;;4162756;28;20048;-73
2021/06/07 05:24:36;;;;;;;11.02;9.35;;;11.70;99.90;;;;;;4180637;28;20052;-73
2021/06/07 05:26:37;;;;;;;16.15;9.20;;;11.90;99.90;;;;;;4165185;28;20037;-74
2021/06/07 05:28:37;;;;;;;12.57;9.40;;;12.00;99.90;;;;;;4165394;28;20472;-72
2021/06/07 05:30:41;;;;;;;13.00;8.73;;;12.00;99.90;;;;;;4165339;28;20026;-72
2021/06/07 05:32:41;;;;;;;9.52;7.80;;;12.10;99.90;;;;;;4165348;28;20148;-74
2021/06/07 05:34:44;;;;;;;11.57;8.30;;;12.20;99.90;;;;;;4165062;28;20041;-72
2021/06/07 05:36:45;;;;;;;13.85;8.65;;;12.30;99.90;;;;;;4164087;28;20034;-72
2021/06/07 05:38:45;;;;;;;10.40;7.65;;;12.40;99.90;;;;;;4165490;28;20488;-72
2021/06/07 05:40:53;;;;;;;15.55;11.60;;;12.50;99.90;;;;;;4164508;28;20026;-72
2021/06/07 05:42:54;;;;;;;17.15;12.13;;;12.50;99.90;;;;;;4164696;28;20029;-73
2021/06/07 05:44:55;;;;;;;20.75;16.02;;;12.60;99.90;;;;;;4165181;28;20036;-73
2021/06/07 05:46:56;;;;;;;10.18;8.30;;;12.70;99.90;;;;;;4165130;28;20433;-72
2021/06/07 05:48:56;;;;;;;11.80;8.07;;;12.70;99.90;;;;;;4164804;28;20465;-72
2021/06/07 05:50:57;;;;;;;8.82;7.93;;;12.80;99.90;;;;;;4164220;28;20083;-72
2021/06/07 05:52:58;;;;;;;10.05;7.25;;;12.90;99.90;;;;;;4162816;28;20072;-72
2021/06/07 05:54:59;;;;;;;11.15;7.13;;;12.90;99.90;;;;;;4162223;28;20431;-73
2021/06/07 05:57:00;;;;;;;8.82;6.57;;;13.00;99.90;;;;;;4163582;28;20428;-72
2021/06/07 05:59:00;;;;;;;7.50;6.82;;;13.10;99.90;;;;;;4173893;28;20038;-72
2021/06/07 06:01:02;;;;;;;9.50;6.53;;;13.20;99.90;;;;;;4165445;28;20036;-73
2021/06/07 06:03:03;;;;;;;10.63;6.55;;;13.30;99.90;;;;;;4159093;28;20034;-72
2021/06/07 06:05:04;;;;;;;9.68;5.55;;;13.50;99.90;;;;;;4161375;28;20053;-73
2021/06/07 06:07:05;;;;;;;19.02;5.88;;;13.60;99.90;;;;;;4156452;28;20496;-72
2021/06/07 06:09:06;;;;;;;9.75;5.40;;;13.60;99.90;;;;;;4156428;28;20033;-72
2021/06/07 06:11:06;;;;;;;8.88;5.25;;;13.70;99.90;;;;;;4156650;28;20116;-72
2021/06/07 06:13:07;;;;;;;6.32;4.85;;;13.70;99.90;;;;;;4164858;28;20048;-73
2021/06/07 06:15:11;;;;;;;8.35;4.50;;;13.80;99.90;;;;;;4163944;28;20121;-73
2021/06/07 06:17:11;;;;;;;8.18;4.50;;;13.90;99.90;;;;;;4164074;28;20060;-73
2021/06/07 06:19:12;;;;;;;10.63;5.30;;;14.00;99.90;;;;;;4157786;28;20038;-72
2021/06/07 06:21:14;;;;;;;9.10;4.63;;;14.20;99.90;;;;;;4158933;28;20539;-72
2021/06/07 06:23:14;;;;;;;6.55;4.03;;;14.30;99.90;;;;;;4157556;28;20025;-73
2021/06/07 06:25:17;;;;;;;5.75;4.03;;;14.40;99.90;;;;;;4163212;28;20025;-73
2021/06/07 06:27:18;;;;;;;6.57;3.92;;;14.40;99.90;;;;;;4159383;28;20077;-72
2021/06/07 06:29:18;;;;;;;6.00;4.22;;;14.60;99.90;;;;;;4154492;28;20481;-72
2021/06/07 06:31:19;;;;;;;4.97;4.05;;;14.60;99.90;;;;;;4157973;28;20038;-72
2021/06/07 06:33:20;;;;;;;8.18;4.82;;;14.70;99.90;;;;;;4152825;28;20061;-73
2021/06/07 06:35:22;;;;;;;6.32;4.30;;;14.70;99.90;;;;;;4160918;28;20534;-73
2021/06/07 06:37:22;;;;;;;4.93;4.43;;;14.80;99.90;;;;;;4162096;28;20108;-73
2021/06/07 06:39:23;;;;;;;7.20;3.50;;;14.90;99.90;;;;;;4158493;28;20041;-72
2021/06/07 06:41:28;;;;;;;4.43;3.88;;;14.90;99.90;;;;;;4156507;28;20026;-73
2021/06/07 06:43:29;;;;;;;4.65;3.78;;;15.00;99.90;;;;;;4162932;28;20102;-73
2021/06/07 06:45:30;;;;;;;4.50;3.95;;;15.10;99.90;;;;;;4157069;28;20029;-73
2021/06/07 06:47:31;;;;;;;6.65;4.20;;;15.20;99.90;;;;;;4154769;28;20116;-73
2021/06/07 06:49:32;;;;;;;7.07;4.25;;;15.30;99.90;;;;;;4154505;28;20026;-73
2021/06/07 06:51:33;;;;;;;6.28;3.35;;;15.40;99.90;;;;;;4162199;28;20040;-73
2021/06/07 06:53:33;;;;;;;4.35;3.30;;;15.50;99.90;;;;;;4163147;28;20040;-73
2021/06/07 06:55:34;;;;;;;8.32;5.30;;;15.60;99.90;;;;;;4162772;28;20060;-73
2021/06/07 06:57:35;;;;;;;4.93;3.50;;;15.70;99.90;;;;;;4163205;28;20022;-73
2021/06/07 06:59:36;;;;;;;5.03;4.00;;;15.80;99.90;;;;;;4162897;28;20369;-73
2021/06/07 07:01:36;;;;;;;8.73;4.28;;;15.80;99.90;;;;;;4150896;28;20034;-73
2021/06/07 07:03:38;;;;;;;5.80;4.05;;;15.90;99.90;;;;;;4166097;28;20437;-73
2021/06/07 07:05:39;;;;;;;5.32;3.72;;;16.00;99.90;;;;;;4162814;28;20480;-73
2021/06/07 07:07:40;;;;;;;5.22;4.32;;;16.10;99.90;;;;;;4161542;28;20037;-73
2021/06/07 07:09:43;;;;;;;7.07;4.90;;;16.10;99.90;;;;;;4162983;28;20127;-74
2021/06/07 07:11:43;;;;;;;7.35;4.03;;;16.20;99.90;;;;;;4161638;28;20032;-73
2021/06/07 07:13:44;;;;;;;4.90;4.00;;;16.40;99.90;;;;;;4162054;28;20030;-73
2021/06/07 07:15:45;;;;;;;5.57;4.03;;;16.40;99.90;;;;;;4151502;28;20037;-73
2021/06/07 07:17:46;;;;;;;4.85;3.75;;;16.50;99.90;;;;;;4160009;28;20076;-74
2021/06/07 07:19:48;;;;;;;8.27;3.97;;;16.50;99.90;;;;;;4162275;28;20037;-74
2021/06/07 07:21:48;;;;;;;5.18;4.40;;;16.70;99.90;;;;;;4162853;28;20037;-73
2021/06/07 07:23:49;;;;;;;8.05;4.18;;;16.80;99.90;;;;;;4161535;28;20500;-72
2021/06/07 07:25:50;;;;;;;6.63;4.68;;;16.80;99.90;;;;;;4153239;28;20423;-73
2021/06/07 07:27:50;;;;;;;5.03;3.65;;;16.90;99.90;;;;;;4151687;28;20062;-73
2021/06/07 07:29:51;;;;;;;3.50;3.20;;;17.10;99.90;;;;;;4161315;28;20037;-72
2021/06/07 07:31:52;;;;;;;5.63;3.33;;;17.20;99.90;;;;;;4158015;28;21071;-73
2021/06/07 07:33:53;;;;;;;5.80;3.10;;;17.40;99.90;;;;;;4155880;28;20022;-73
2021/06/07 07:35:53;;;;;;;3.33;3.00;;;17.60;99.90;;;;;;4154307;28;20084;-73
2021/06/07 07:37:55;;;;;;;4.25;2.92;;;17.80;99.90;;;;;;4150243;28;20407;-73
2021/06/07 07:39:56;;;;;;;7.93;2.90;;;17.90;99.90;;;;;;4164911;28;20037;-73
2021/06/07 07:41:57;;;;;;;4.00;2.70;;;18.00;99.90;;;;;;4175357;28;20106;-72
2021/06/07 07:43:57;;;;;;;2.85;2.33;;;18.10;99.90;;;;;;4165920;28;20083;-72
2021/06/07 07:45:59;;;;;;;6.30;2.55;;;18.20;99.90;;;;;;4165801;28;20029;-72
2021/06/07 07:48:04;;;;;;;3.45;2.75;;;18.40;99.90;;;;;;4163491;28;20527;-72
2021/06/07 07:50:07;;;;;;;2.88;2.22;;;18.50;99.90;;;;;;4165173;28;20481;-72
2021/06/07 07:52:08;;;;;;;3.10;2.08;;;18.50;99.90;;;;;;4164241;28;20619;-73
2021/06/07 07:54:10;;;;;;;2.75;2.20;;;18.70;99.90;;;;;;4163598;28;20112;-73
2021/06/07 07:56:11;;;;;;;4.03;2.30;;;18.80;99.90;;;;;;4162493;28;20469;-73
2021/06/07 07:58:11;;;;;;;6.32;2.28;;;19.00;99.90;;;;;;4163771;28;20022;-72
2021/06/07 08:00:13;;;;;;;3.60;2.40;;;18.90;99.90;;;;;;4163585;28;20041;-73
2021/06/07 08:02:14;;;;;;;2.38;2.17;;;18.90;99.90;;;;;;4163650;28;20025;-73
2021/06/07 08:04:15;;;;;;;4.28;2.30;;;19.10;99.90;;;;;;4163950;28;20496;-72
2021/06/07 08:06:15;;;;;;;3.35;2.05;;;19.20;99.90;;;;;;4163305;28;20036;-72
2021/06/07 08:08:16;;;;;;;3.67;2.22;;;19.30;99.90;;;;;;4163741;28;20029;-73
2021/06/07 08:10:17;;;;;;;2.92;2.08;;;19.40;99.90;;;;;;4163284;28;20456;-72
2021/06/07 08:12:17;;;;;;;6.22;2.13;;;19.60;99.90;;;;;;4163562;28;20047;-73
2021/06/07 08:14:18;;;;;;;3.30;2.30;;;19.60;99.90;;;;;;4163172;28;20037;-71
2021/06/07 08:16:19;;;;;;;3.10;2.38;;;19.60;99.90;;;;;;4164118;28;20108;-73
2021/06/07 08:18:20;;;;;;;4.32;2.22;;;19.80;99.90;;;;;;4164422;28;20087;-73
2021/06/07 08:20:21;;;;;;;2.83;2.30;;;19.70;99.90;;;;;;4165926;28;20029;-72
2021/06/07 08:22:22;;;;;;;4.38;2.50;;;19.60;99.90;;;;;;4163972;28;20435;-72
2021/06/07 08:24:23;;;;;;;4.80;2.33;;;19.80;99.90;;;;;;4164037;28;20040;-72
2021/06/07 08:26:24;;;;;;;3.88;1.98;;;20.00;99.90;;;;;;4164278;28;20473;-70
2021/06/07 08:28:25;;;;;;;3.72;2.97;;;20.00;99.90;;;;;;4164153;28;20242;-72
2021/06/07 08:30:28;;;;;;;4.13;2.47;;;20.10;99.90;;;;;;4163897;28;20388;-72
2021/06/07 08:32:28;;;;;;;4.13;2.35;;;20.10;99.90;;;;;;4164241;28;20029;-72
2021/06/07 08:34:29;;;;;;;3.85;2.50;;;20.20;99.90;;;;;;4161589;28;20029;-72
2021/06/07 08:36:30;;;;;;;4.60;2.70;;;19.10;99.90;;;;;;4152435;28;20044;-72
2021/06/07 08:38:31;;;;;;;5.82;2.83;;;20.80;99.90;;;;;;4163923;28;20034;-72
2021/06/07 08:40:32;;;;;;;3.35;2.42;;;20.90;99.90;;;;;;4164265;28;20029;-71
2021/06/07 08:42:40;;;;;;;3.72;2.63;;;21.00;99.90;;;;;;4164400;28;20482;-72
2021/06/07 08:44:41;;;;;;;2.63;2.42;;;21.10;99.90;;;;;;4159783;28;20505;-72
2021/06/07 08:46:42;;;;;;;4.97;2.78;;;20.80;99.90;;;;;;4164186;28;20038;-72
2021/06/07 08:48:43;;;;;;;3.88;2.60;;;20.90;99.90;;;;;;4163853;28;20381;-72
2021/06/07 08:50:44;;;;;;;6.22;3.00;;;20.90;99.90;;;;;;4163315;28;20465;-72
2021/06/07 08:52:46;;;;;;;6.50;2.72;;;20.80;99.90;;;;;;4162198;28;20124;-72
2021/06/07 08:54:46;;;;;;;4.60;3.25;;;21.00;99.90;;;;;;4162211;28;20079;-72
2021/06/07 08:56:47;;;;;;;7.72;2.50;;;21.20;99.90;;;;;;4161119;28;20084;-72
2021/06/07 08:58:48;;;;;;;6.18;2.80;;;21.10;99.90;;;;;;4164100;28;20029;-72
2021/06/07 09:00:49;;;;;;;6.35;3.25;;;21.20;99.90;;;;;;4149846;28;20132;-72
2021/06/07 09:02:58;;;;;;;5.97;2.90;;;21.60;99.90;;;;;;4154825;28;20400;-71
2021/06/07 09:04:59;;;;;;;4.90;2.88;;;21.60;99.90;;;;;;4162624;28;20416;-72
2021/06/07 09:07:03;;;;;;;6.03;3.60;;;21.70;99.90;;;;;;4161651;28;20025;-73
2021/06/07 09:09:05;;;;;;;3.78;2.45;;;21.80;99.90;;;;;;4163329;28;20033;-72
2021/06/07 09:11:15;;;;;;;4.78;2.58;;;21.80;99.90;;;;;;4157167;28;20033;-72
2021/06/07 09:13:18;;;;;;;5.95;3.33;;;22.00;99.90;;;;;;4163704;28;20495;-73
2021/06/07 09:15:29;;;;;;;6.00;3.22;;;22.00;99.90;;;;;;4163360;28;20525;-73
2021/06/07 09:17:29;;;;;;;4.28;3.13;;;22.20;99.90;;;;;;4163456;28;20041;-73
2021/06/07 09:19:31;;;;;;;3.60;2.55;;;22.60;99.90;;;;;;4162987;28;20645;-72
2021/06/07 09:21:31;;;;;;;4.28;3.13;;;22.40;99.90;;;;;;4163281;28;20075;-72
2021/06/07 09:23:45;;;;;;;6.97;2.78;;;22.10;99.90;;;;;;4162930;28;20029;-71
2021/06/07 09:25:47;;;;;;;6.45;3.35;;;22.20;99.90;;;;;;4177043;28;20510;-72
2021/06/07 09:28:04;;;;;;;4.32;3.00;;;22.20;99.90;;;;;;4162561;28;20120;-71
2021/06/07 09:30:31;;;;;;;7.90;3.55;;;22.20;99.90;;;;;;4163315;28;20365;-73
2021/06/07 09:32:32;;;;;;;3.88;3.00;;;22.60;99.90;;;;;;4161555;28;20036;-73
2021/06/07 09:34:36;;;;;;;4.60;2.88;;;22.60;99.90;;;;;;4162008;28;20172;-72
2021/06/07 09:36:39;;;;;;;6.63;4.07;;;22.50;99.90;;;;;;4159420;28;20061;-73
2021/06/07 09:38:53;;;;;;;7.68;3.88;;;;;;;;;;4163416;28;20033;-72
2021/06/07 09:41:03;;;;;;;6.95;2.92;;;22.90;99.90;;;;;;4163147;28;20501;-73
2021/06/07 09:43:05;;;;;;;5.10;3.47;;;23.10;99.90;;;;;;4161612;28;20068;-73
2021/06/07 09:45:07;;;;;;;5.45;3.40;;;23.70;99.90;;;;;;4162877;28;20033;-73
2021/06/07 09:47:12;;;;;;;4.40;3.70;;;23.70;99.90;;;;;;4163135;28;20643;-73
2021/06/07 09:49:16;;;;;;;5.03;3.17;;;23.70;99.90;;;;;;4163076;28;20123;-73
2021/06/07 09:51:19;;;;;;;7.28;3.45;;;23.90;99.90;;;;;;4162719;28;20025;-72
2021/06/07 09:53:54;;;;;;;3.88;2.55;;;23.70;99.90;;;;;;4159463;28;20030;-72
2021/06/07 09:56:02;;;;;;;3.42;2.45;;;23.80;99.90;;;;;;4160953;28;20033;-72
2021/06/07 09:58:07;;;;;;;5.05;3.30;;;24.10;99.90;;;;;;4162736;28;20391;-72
2021/06/07 10:00:09;;;;;;;5.10;2.70;;;24.00;99.90;;;;;;4162861;28;20038;-72
2021/06/07 10:02:16;;;;;;;4.10;2.83;;;24.10;99.90;;;;;;4161756;28;20037;-72
2021/06/07 10:04:17;;;;;;;5.25;2.97;;;24.30;99.90;;;;;;4162375;28;20037;-72
2021/06/07 10:06:26;;;;;;;4.60;3.05;;;24.40;99.90;;;;;;4162001;28;20433;-72
2021/06/07 10:08:44;;;;;;;5.47;3.00;;;24.30;99.90;;;;;;4161784;28;20037;-73
2021/06/07 10:10:44;;;;;;;6.43;3.20;;;24.30;99.90;;;;;;4160214;28;20061;-73
2021/06/07 10:12:46;;;;;;;4.80;2.80;;;24.00;99.90;;;;;;4161557;28;20026;-72
2021/06/07 10:14:48;;;;;;;5.37;3.10;;;24.10;99.90;;;;;;4161192;28;20052;-72
2021/06/07 10:17:01;;;;;;;6.13;3.37;;;24.40;99.90;;;;;;4161688;28;20042;-72
2021/06/07 10:19:08;;;;;;;4.00;2.75;;;24.50;99.90;;;;;;4156802;28;20029;-72
2021/06/07 10:21:11;;;;;;;5.57;2.50;;;24.70;99.90;;;;;;4147770;28;20516;-73
2021/06/07 10:23:12;;;;;;;;;;;25.20;99.90;;;;;;4161132;28;20037;-73
2021/06/07 10:25:13;;;;;;;5.13;2.88;;;25.50;99.90;;;;;;4157783;28;19909;-73
2021/06/07 10:27:15;;;;;;;3.33;2.58;;;25.70;99.90;;;;;;4156165;28;20026;-73
2021/06/07 10:29:15;;;;;;;3.50;2.75;;;26.10;99.90;;;;;;4155290;28;20037;-73
2021/06/07 10:31:18;;;;;;;4.30;3.00;;;26.20;99.90;;;;;;4157635;28;20092;-73
2021/06/07 10:33:26;;;;;;;3.47;3.03;;;26.20;99.90;;;;;;4158739;28;20083;-73